Impacts TAF Board INFO
FOR SITUATIONAL AWARENESS. NOT TO BE USED FOR FLIGHT PLANNING PURPOSES.
IDs:

KORD - Chicago/O'Hare Intl, IL, US

Issued at 0916 UTC 23 Jan 2018
Updated at 1018 UTC 23 Jan 2018
Potential Impact None Slight Moderate High
Time<<23/23Z 24/00Z 24/01Z 24/02Z 24/03Z 24/04Z 24/05Z 24/06Z 24/07Z 24/08Z 24/09Z 24/10Z 24/11Z>>
Type PRVL PRVL PRVL PRVL PRVL PRVL PRVL PRVL PRVL PRVL PRVL PRVL PRVL
VIS >6 >6 >6 >6 >6 >6 >6 >6 >6 >6 >6 >6 >6
CIG 25 25 25 25 25 25 25 25 25 25 25 25 25
Cover BKN BKN BKN BKN BKN BKN BKN BKN BKN BKN BKN BKN BKN
FltCat MVFR MVFR MVFR MVFR MVFR MVFR MVFR MVFR MVFR MVFR MVFR MVFR MVFR
WX -- -- -- -- -- -- -- -- -- -- -- -- --
WDir 310 310 310 310 310 310 310 310 310 310 310 310 310
WSpd 12 12 12 12 12 12 12 12 12 12 12 12 12
WGst -- -- -- -- -- -- -- -- -- -- -- -- --

Raw TAF
KORD 230916Z 2309/2412 27009KT 6SM -RASN SCT008 OVC015
  TEMPO 2309/2310 OVC008
  FM231000 29010KT 6SM -SN BR SCT008 OVC015
  TEMPO 2310/2312 2SM -SN BR SCT004 OVC008
  FM231300 32013G21KT P6SM -SHSN OVC015
  FM231500 32015G23KT P6SM OVC020
  FM232200 31012KT P6SM BKN025


METAR Board
Radar Display
Forecast Discussion

FOR SITUATIONAL AWARENESS. NOT TO BE USED FOR FLIGHT PLANNING PURPOSES.